Time;durP1;ratioP1;P1;durP2;ratioP2;P2;SDS_P1;SDS_P2;PMS_P1;PMS_P2;Temp;Humidity;BMP_temperature;BMP_pressure;BME280_temperature;BME280_humidity;BME280_pressure;Samples;Min_cycle;Max_cycle;Signal;HPM_P1;HPM_P2
2023/09/12 00:01:32;;;;;;;;;;;24.50;63.90;;;;;;5096311;28;19985;-63
2023/09/12 00:03:59;;;;;;;;;;;24.50;63.90;;;;;;5091236;28;19924;-62
2023/09/12 00:06:27;;;;;;;;;;;24.50;64.00;;;;;;5100133;28;19931;-63
2023/09/12 00:08:54;;;;;;;;;;;24.60;64.20;;;;;;5093884;28;19924;-63
2023/09/12 00:11:20;;;;;;;;;;;24.50;64.20;;;;;;5128388;27;19934;-63
2023/09/12 00:13:47;;;;;;;;;;;24.50;64.30;;;;;;5098753;28;19932;-63
2023/09/12 00:16:14;;;;;;;;;;;24.50;64.40;;;;;;5114956;27;19969;-62
2023/09/12 00:18:42;;;;;;;;;;;24.50;64.50;;;;;;5093937;28;19924;-62
2023/09/12 00:21:08;;;;;;;;;;;24.50;64.50;;;;;;5092928;28;19924;-62
2023/09/12 00:23:37;;;;;;;;;;;24.50;64.50;;;;;;5090048;28;19935;-64
2023/09/12 00:26:03;;;;;;;;;;;24.50;64.50;;;;;;5087199;28;19928;-61
2023/09/12 00:28:30;;;;;;;;;;;24.50;64.60;;;;;;5089353;28;19928;-63
2023/09/12 00:30:57;;;;;;;;;;;24.50;64.60;;;;;;5095858;28;19935;-62
2023/09/12 00:33:24;;;;;;;;;;;24.50;64.70;;;;;;5095906;28;19924;-62
2023/09/12 00:35:50;;;;;;;;;;;24.50;64.80;;;;;;5092749;28;19924;-62
2023/09/12 00:38:17;;;;;;;;;;;24.50;64.80;;;;;;5093614;28;19924;-61
2023/09/12 00:40:45;;;;;;;;;;;24.50;64.80;;;;;;5112388;27;19973;-62
2023/09/12 00:43:12;;;;;;;;;;;24.50;64.80;;;;;;5092395;28;19924;-63
2023/09/12 00:45:39;;;;;;;;;;;24.50;64.80;;;;;;5096812;28;19924;-63
2023/09/12 00:48:05;;;;;;;;;;;24.50;64.80;;;;;;5112114;27;20001;-63
2023/09/12 00:50:32;;;;;;;;;;;24.50;64.90;;;;;;5091259;28;19942;-65
2023/09/12 00:52:59;;;;;;;;;;;24.50;64.80;;;;;;5091758;28;19932;-62
2023/09/12 00:55:26;;;;;;;;;;;24.50;65.00;;;;;;5106655;28;19963;-63
2023/09/12 00:57:54;;;;;;;;;;;24.50;65.00;;;;;;5094244;28;19931;-63
2023/09/12 01:00:21;;;;;;;;;;;24.50;65.00;;;;;;5105514;28;19932;-63
2023/09/12 01:02:49;;;;;;;;;;;24.50;65.00;;;;;;5096263;28;19946;-62
2023/09/12 01:05:16;;;;;;;;;;;24.50;65.00;;;;;;5089342;28;19984;-62
2023/09/12 01:07:43;;;;;;;;;;;24.50;65.00;;;;;;5090987;28;19951;-62
2023/09/12 01:10:10;;;;;;;;;;;24.50;65.00;;;;;;5123340;27;19924;-61
2023/09/12 01:12:37;;;;;;;;;;;24.50;65.00;;;;;;5090734;28;19947;-63
2023/09/12 01:15:13;;;;;;;;;;;24.50;65.00;;;;;;5092158;28;19950;-62
2023/09/12 01:17:40;;;;;;;;;;;24.40;64.80;;;;;;5091567;28;19931;-62
2023/09/12 01:20:07;;;;;;;;;;;24.40;64.90;;;;;;5090133;28;19928;-62
2023/09/12 01:22:49;;;;;;;;;;;24.50;65.00;;;;;;5101834;28;19924;-62
2023/09/12 01:25:22;;;;;;;;;;;24.50;65.00;;;;;;5094685;27;19924;-61
2023/09/12 01:27:51;;;;;;;;;;;24.50;64.90;;;;;;5090034;28;19928;-62
2023/09/12 01:30:18;;;;;;;;;;;24.40;64.70;;;;;;5088797;28;20424;-62
2023/09/12 01:32:45;;;;;;;;;;;24.50;64.80;;;;;;5089422;28;19928;-62
2023/09/12 01:35:12;;;;;;;;;;;24.50;64.80;;;;;;5095315;28;20033;-65
2023/09/12 01:37:38;;;;;;;;;;;24.50;64.60;;;;;;5089779;28;19928;-63
2023/09/12 01:40:06;;;;;;;;;;;24.40;64.50;;;;;;5096138;28;19924;-64
2023/09/12 01:42:36;;;;;;;;;;;24.50;64.60;;;;;;5090239;28;19932;-63
2023/09/12 01:45:05;;;;;;;;;;;24.50;64.50;;;;;;5089943;28;19928;-62
2023/09/12 01:47:31;;;;;;;;;;;24.40;64.40;;;;;;5091121;28;19977;-62
2023/09/12 01:49:58;;;;;;;;;;;24.50;64.50;;;;;;5094806;28;19924;-62
2023/09/12 01:52:25;;;;;;;;;;;24.40;64.40;;;;;;5096099;28;19935;-63
2023/09/12 01:54:52;;;;;;;;;;;24.50;64.50;;;;;;5089163;28;19928;-61
2023/09/12 01:57:20;;;;;;;;;;;24.40;64.30;;;;;;5099590;28;20162;-62
2023/09/12 01:59:47;;;;;;;;;;;24.50;64.40;;;;;;5090532;28;20140;-61
2023/09/12 02:02:15;;;;;;;;;;;24.40;64.30;;;;;;5089874;28;19924;-62
2023/09/12 02:04:42;;;;;;;;;;;24.50;64.30;;;;;;5110347;28;20005;-63
2023/09/12 02:07:09;;;;;;;;;;;24.50;64.50;;;;;;5095343;28;19924;-61
2023/09/12 02:09:38;;;;;;;;;;;24.40;64.50;;;;;;5098926;28;19969;-63
2023/09/12 02:12:05;;;;;;;;;;;24.50;64.80;;;;;;5110528;27;19979;-61
2023/09/12 02:14:32;;;;;;;;;;;24.40;64.80;;;;;;5098298;28;19924;-64
2023/09/12 02:16:58;;;;;;;;;;;24.50;65.00;;;;;;5103336;28;19931;-61
2023/09/12 02:19:26;;;;;;;;;;;24.50;65.00;;;;;;5096531;28;19924;-62
2023/09/12 02:21:53;;;;;;;;;;;24.40;64.80;;;;;;5102479;28;19925;-63
2023/09/12 02:24:21;;;;;;;;;;;24.50;64.90;;;;;;5093190;28;20396;-62
2023/09/12 02:26:48;;;;;;;;;;;24.40;64.90;;;;;;5100335;28;19970;-62
2023/09/12 02:29:14;;;;;;;;;;;24.50;65.00;;;;;;5095439;28;19932;-61
2023/09/12 02:31:41;;;;;;;;;;;24.50;65.10;;;;;;5093147;28;19928;-62
2023/09/12 02:34:08;;;;;;;;;;;24.50;65.20;;;;;;5104260;28;19989;-62
2023/09/12 02:36:36;;;;;;;;;;;24.50;65.30;;;;;;5092877;28;19924;-61
2023/09/12 02:39:03;;;;;;;;;;;24.50;65.30;;;;;;5095629;28;19928;-62
2023/09/12 02:41:29;;;;;;;;;;;24.40;65.10;;;;;;5096872;28;19930;-62
2023/09/12 02:43:56;;;;;;;;;;;24.40;65.10;;;;;;5097082;28;19931;-62
2023/09/12 02:46:23;;;;;;;;;;;24.50;65.30;;;;;;5094218;28;19924;-62
2023/09/12 02:48:50;;;;;;;;;;;24.40;65.20;;;;;;5093785;28;19959;-63
2023/09/12 02:51:16;;;;;;;;;;;24.50;65.30;;;;;;5118462;27;20011;-62
2023/09/12 02:53:45;;;;;;;;;;;24.50;65.30;;;;;;5093598;28;19957;-62
2023/09/12 02:56:12;;;;;;;;;;;24.50;65.20;;;;;;5092324;28;19947;-62
2023/09/12 02:58:38;;;;;;;;;;;24.50;65.40;;;;;;5108509;28;19994;-62
2023/09/12 03:01:06;;;;;;;;;;;24.50;65.20;;;;;;5100795;28;19928;-62
2023/09/12 03:03:33;;;;;;;;;;;24.50;65.30;;;;;;5099368;28;20027;-63
2023/09/12 03:06:00;;;;;;;;;;;24.50;65.20;;;;;;5092851;28;19924;-62
2023/09/12 03:08:26;;;;;;;;;;;24.40;65.00;;;;;;5112615;28;20031;-61
2023/09/12 03:10:58;;;;;;;;;;;24.50;65.10;;;;;;5108111;28;19938;-62
2023/09/12 03:13:25;;;;;;;;;;;24.50;65.10;;;;;;5091217;28;19924;-61
2023/09/12 03:15:52;;;;;;;;;;;24.50;65.20;;;;;;5091544;28;19946;-61
2023/09/12 03:18:18;;;;;;;;;;;24.50;65.20;;;;;;5100701;28;19932;-62
2023/09/12 03:20:45;;;;;;;;;;;24.40;65.10;;;;;;5091083;28;19924;-62
2023/09/12 03:23:12;;;;;;;;;;;24.40;65.20;;;;;;5097941;28;19932;-63
2023/09/12 03:25:39;;;;;;;;;;;24.50;65.30;;;;;;5096553;28;19936;-61
2023/09/12 03:28:07;;;;;;;;;;;24.40;65.20;;;;;;5107984;28;19935;-62
2023/09/12 03:30:34;;;;;;;;;;;24.50;65.30;;;;;;5086500;28;20163;-62
2023/09/12 03:33:01;;;;;;;;;;;24.40;65.10;;;;;;5114509;28;19928;-64
2023/09/12 03:35:28;;;;;;;;;;;24.50;65.10;;;;;;5115909;28;20002;-62
2023/09/12 03:37:54;;;;;;;;;;;24.50;65.30;;;;;;5107525;28;19931;-62
2023/09/12 03:40:21;;;;;;;;;;;24.50;65.40;;;;;;5107694;28;19939;-62
2023/09/12 03:42:48;;;;;;;;;;;24.50;65.40;;;;;;5090128;28;19993;-62
2023/09/12 03:45:16;;;;;;;;;;;24.50;65.40;;;;;;5099151;28;19935;-61
2023/09/12 03:47:46;;;;;;;;;;;24.50;65.60;;;;;;5103062;28;19993;-63
2023/09/12 03:50:13;;;;;;;;;;;24.40;65.40;;;;;;5119279;28;19924;-62
2023/09/12 03:52:39;;;;;;;;;;;24.40;65.40;;;;;;5092206;28;19924;-62
2023/09/12 03:55:06;;;;;;;;;;;24.40;65.40;;;;;;5107003;28;19923;-62
2023/09/12 03:57:33;;;;;;;;;;;24.40;65.30;;;;;;5045068;28;1874833;-63
2023/09/12 04:00:00;;;;;;;;;;;24.40;65.20;;;;;;5103299;28;19928;-63
2023/09/12 04:02:28;;;;;;;;;;;24.50;65.30;;;;;;5117223;27;19924;-62
2023/09/12 04:04:58;;;;;;;;;;;24.40;65.10;;;;;;5091451;28;19931;-62
2023/09/12 04:07:25;;;;;;;;;;;24.40;65.10;;;;;;5091674;28;19924;-62
2023/09/12 04:09:52;;;;;;;;;;;24.50;65.20;;;;;;5098423;28;19924;-62
2023/09/12 04:12:18;;;;;;;;;;;24.50;65.10;;;;;;5093609;28;19932;-61
2023/09/12 04:14:45;;;;;;;;;;;24.40;65.00;;;;;;5092231;28;19924;-62
2023/09/12 04:17:12;;;;;;;;;;;24.50;65.10;;;;;;5107810;28;19941;-61
2023/09/12 04:19:40;;;;;;;;;;;24.40;65.00;;;;;;5090680;28;19981;-62
2023/09/12 04:22:06;;;;;;;;;;;24.50;65.10;;;;;;5090261;28;19924;-62
2023/09/12 04:24:33;;;;;;;;;;;24.50;65.20;;;;;;5090666;28;19924;-63
2023/09/12 04:27:00;;;;;;;;;;;24.40;65.10;;;;;;5108056;28;19936;-62
2023/09/12 04:29:27;;;;;;;;;;;24.50;65.20;;;;;;5107971;28;19931;-62
2023/09/12 04:31:59;;;;;;;;;;;24.50;65.10;;;;;;5100185;28;20019;-62
2023/09/12 04:34:25;;;;;;;;;;;24.40;65.10;;;;;;5099304;28;19924;-63
2023/09/12 04:36:54;;;;;;;;;;;24.50;65.20;;;;;;5098377;28;19955;-61
2023/09/12 04:39:21;;;;;;;;;;;24.40;65.10;;;;;;5094819;28;19931;-62
2023/09/12 04:41:47;;;;;;;;;;;24.40;65.00;;;;;;5103102;28;19978;-63
2023/09/12 04:44:14;;;;;;;;;;;24.50;65.10;;;;;;5098519;28;19928;-61
2023/09/12 04:46:41;;;;;;;;;;;24.40;65.10;;;;;;5087424;28;19932;-63
2023/09/12 04:49:08;;;;;;;;;;;24.50;65.20;;;;;;5091105;28;19935;-62
2023/09/12 04:51:34;;;;;;;;;;;24.50;65.50;;;;;;5089559;28;19924;-61
2023/09/12 04:54:03;;;;;;;;;;;24.50;65.60;;;;;;5087216;28;19925;-63
2023/09/12 04:56:29;;;;;;;;;;;24.40;65.40;;;;;;5090738;28;19973;-62
2023/09/12 04:58:56;;;;;;;;;;;24.40;65.60;;;;;;5090018;28;19932;-61
2023/09/12 05:01:25;;;;;;;;;;;24.40;65.60;;;;;;5081523;28;19928;-62
2023/09/12 05:03:52;;;;;;;;;;;24.50;65.70;;;;;;5105991;28;19924;-62
2023/09/12 05:06:18;;;;;;;;;;;24.40;65.60;;;;;;5106781;28;19928;-62
2023/09/12 05:08:45;;;;;;;;;;;24.50;65.60;;;;;;5089513;28;19924;-63
2023/09/12 05:11:13;;;;;;;;;;;24.40;65.50;;;;;;5089466;28;19928;-63
2023/09/12 05:13:41;;;;;;;;;;;24.50;65.50;;;;;;5089199;28;19924;-62
2023/09/12 05:16:07;;;;;;;;;;;24.50;65.50;;;;;;5105488;28;20019;-65
2023/09/12 05:18:34;;;;;;;;;;;24.50;65.50;;;;;;5089186;28;19928;-62
2023/09/12 05:21:01;;;;;;;;;;;24.50;65.40;;;;;;5087673;28;19945;-64
2023/09/12 05:23:28;;;;;;;;;;;24.40;65.30;;;;;;5091053;28;19924;-64
2023/09/12 05:25:54;;;;;;;;;;;24.50;65.40;;;;;;5089701;28;19955;-62
2023/09/12 05:28:22;;;;;;;;;;;24.50;65.40;;;;;;5088628;28;19932;-61
2023/09/12 05:30:49;;;;;;;;;;;24.50;65.30;;;;;;5107364;27;20077;-61
2023/09/12 05:33:17;;;;;;;;;;;24.50;65.30;;;;;;5094662;28;19924;-63
2023/09/12 05:35:45;;;;;;;;;;;24.50;65.30;;;;;;5091985;28;19924;-62
2023/09/12 05:38:11;;;;;;;;;;;24.50;65.30;;;;;;5091908;28;19969;-62
2023/09/12 05:40:38;;;;;;;;;;;24.50;65.30;;;;;;5088753;28;19931;-64
2023/09/12 05:43:05;;;;;;;;;;;24.40;65.30;;;;;;5090436;28;19928;-63
2023/09/12 05:45:33;;;;;;;;;;;24.50;65.40;;;;;;5088112;28;19954;-64
2023/09/12 05:48:00;;;;;;;;;;;24.50;65.40;;;;;;5104662;27;19947;-62
2023/09/12 05:50:27;;;;;;;;;;;24.50;65.40;;;;;;5082878;28;19924;-62
2023/09/12 05:52:53;;;;;;;;;;;24.50;65.30;;;;;;5088217;28;19924;-63
2023/09/12 05:55:20;;;;;;;;;;;24.40;65.30;;;;;;5086076;28;19924;-62
2023/09/12 05:57:52;;;;;;;;;;;24.40;65.30;;;;;;5081457;28;19932;-62
2023/09/12 06:00:18;;;;;;;;;;;24.50;65.40;;;;;;5085003;28;19924;-62
2023/09/12 06:02:47;;;;;;;;;;;24.40;65.30;;;;;;5086066;28;19924;-61
2023/09/12 06:05:14;;;;;;;;;;;24.40;65.30;;;;;;5088670;28;19946;-63
2023/09/12 06:07:41;;;;;;;;;;;24.50;65.50;;;;;;5084453;28;19981;-62
2023/09/12 06:10:08;;;;;;;;;;;24.40;65.30;;;;;;5106024;28;19959;-62
2023/09/12 06:12:36;;;;;;;;;;;24.40;65.30;;;;;;5085931;28;19924;-63
2023/09/12 06:15:03;;;;;;;;;;;24.40;65.30;;;;;;5085709;28;19963;-62
2023/09/12 06:17:30;;;;;;;;;;;24.50;65.40;;;;;;5085351;28;20024;-62
2023/09/12 06:19:58;;;;;;;;;;;24.40;65.30;;;;;;5070601;28;19924;-62
2023/09/12 06:22:25;;;;;;;;;;;24.40;65.30;;;;;;5084827;28;19993;-63
2023/09/12 06:24:52;;;;;;;;;;;24.50;65.30;;;;;;5096838;28;19931;-61
2023/09/12 06:27:19;;;;;;;;;;;24.40;65.30;;;;;;5085643;28;19928;-62
2023/09/12 06:29:47;;;;;;;;;;;24.50;65.40;;;;;;5092993;28;20065;-63
2023/09/12 06:32:14;;;;;;;;;;;24.50;65.40;;;;;;5099083;28;19924;-64
2023/09/12 06:34:41;;;;;;;;;;;24.50;65.40;;;;;;5085037;28;19939;-62
2023/09/12 06:37:09;;;;;;;;;;;24.50;65.40;;;;;;5085423;28;19928;-62
2023/09/12 06:39:36;;;;;;;;;;;24.40;65.30;;;;;;5104289;28;19974;-61
2023/09/12 06:42:03;;;;;;;;;;;24.50;65.60;;;;;;5081802;28;20273;-62
2023/09/12 06:44:29;;;;;;;;;;;24.40;65.30;;;;;;5087672;28;19980;-63
2023/09/12 06:46:56;;;;;;;;;;;24.50;65.40;;;;;;5087659;28;19956;-63
2023/09/12 06:49:23;;;;;;;;;;;24.40;65.30;;;;;;5085892;28;19947;-63
2023/09/12 06:51:50;;;;;;;;;;;24.40;65.50;;;;;;5086367;28;19932;-62
2023/09/12 06:54:18;;;;;;;;;;;24.50;65.60;;;;;;5082007;28;19936;-63
2023/09/12 06:56:44;;;;;;;;;;;24.50;65.60;;;;;;5098591;28;19925;-64
2023/09/12 06:59:11;;;;;;;;;;;24.50;65.60;;;;;;5095187;28;19932;-64
2023/09/12 07:01:38;;;;;;;;;;;24.50;65.60;;;;;;5085091;28;19939;-64
2023/09/12 07:04:05;;;;;;;;;;;24.50;65.50;;;;;;5089939;28;19928;-64
2023/09/12 07:06:32;;;;;;;;;;;24.50;65.50;;;;;;5098564;28;19997;-64
2023/09/12 07:08:59;;;;;;;;;;;24.50;65.50;;;;;;5090958;28;19931;-63
2023/09/12 07:11:27;;;;;;;;;;;24.50;65.50;;;;;;5090851;28;19935;-62
2023/09/12 07:13:54;;;;;;;;;;;24.50;65.40;;;;;;5090848;28;19924;-62
2023/09/12 07:16:21;;;;;;;;;;;24.50;65.40;;;;;;5089579;28;19924;-63
2023/09/12 07:18:48;;;;;;;;;;;24.50;65.50;;;;;;5096204;28;19924;-62
2023/09/12 07:21:15;;;;;;;;;;;24.50;65.50;;;;;;5091240;28;19977;-62
2023/09/12 07:23:42;;;;;;;;;;;24.50;65.60;;;;;;5089937;28;19955;-64
2023/09/12 07:26:12;;;;;;;;;;;24.50;65.50;;;;;;5083921;28;19936;-63
2023/09/12 07:28:40;;;;;;;;;;;24.50;65.60;;;;;;5104689;28;19932;-63
2023/09/12 07:31:07;;;;;;;;;;;24.50;65.60;;;;;;5092492;28;19977;-64
2023/09/12 07:33:33;;;;;;;;;;;24.50;65.70;;;;;;5088050;28;19932;-63
2023/09/12 07:36:02;;;;;;;;;;;24.50;65.70;;;;;;5088553;28;19920;-62
2023/09/12 07:38:30;;;;;;;;;;;24.50;65.70;;;;;;5098023;28;19924;-63
2023/09/12 07:40:57;;;;;;;;;;;24.50;65.60;;;;;;5094257;28;19930;-61
2023/09/12 07:43:24;;;;;;;;;;;24.50;65.60;;;;;;5089168;28;19924;-63
2023/09/12 07:45:55;;;;;;;;;;;24.50;65.60;;;;;;5085879;28;19927;-62
2023/09/12 07:48:22;;;;;;;;;;;24.50;65.60;;;;;;5118647;27;19928;-63
2023/09/12 07:50:48;;;;;;;;;;;24.50;65.60;;;;;;5089064;28;19943;-62
2023/09/12 07:53:15;;;;;;;;;;;24.50;65.60;;;;;;5104347;28;19924;-64
2023/09/12 07:55:46;;;;;;;;;;;24.50;65.60;;;;;;5088727;28;19946;-62
2023/09/12 07:58:13;;;;;;;;;;;24.50;65.60;;;;;;5091749;28;19928;-64
2023/09/12 08:00:40;;;;;;;;;;;24.50;65.60;;;;;;5101949;28;19970;-63
2023/09/12 08:03:08;;;;;;;;;;;24.50;65.60;;;;;;5087804;28;19920;-63
2023/09/12 08:05:35;;;;;;;;;;;24.50;65.60;;;;;;5088918;28;19924;-63
2023/09/12 08:08:01;;;;;;;;;;;24.50;65.60;;;;;;5088064;28;19928;-63
2023/09/12 08:10:28;;;;;;;;;;;24.50;65.60;;;;;;5095558;28;20022;-62
2023/09/12 08:12:55;;;;;;;;;;;24.50;65.70;;;;;;5087789;28;19943;-63
2023/09/12 08:15:22;;;;;;;;;;;24.50;65.70;;;;;;5096750;28;19927;-63
2023/09/12 08:17:51;;;;;;;;;;;24.60;65.80;;;;;;5087841;28;19924;-63
2023/09/12 08:20:20;;;;;;;;;;;24.60;65.80;;;;;;5085070;28;19963;-63
2023/09/12 08:22:46;;;;;;;;;;;24.50;65.80;;;;;;5088467;28;19970;-65
2023/09/12 08:25:14;;;;;;;;;;;24.50;65.80;;;;;;5084233;28;19989;-62
2023/09/12 08:27:42;;;;;;;;;;;24.50;65.70;;;;;;5093328;28;19973;-63
2023/09/12 08:30:09;;;;;;;;;;;24.50;65.70;;;;;;5086569;28;19924;-65
2023/09/12 08:32:36;;;;;;;;;;;24.60;65.80;;;;;;5103576;27;19925;-64
2023/09/12 08:35:03;;;;;;;;;;;24.50;65.70;;;;;;5084676;28;19932;-63
2023/09/12 08:37:31;;;;;;;;;;;24.50;65.80;;;;;;5104297;27;19924;-64
2023/09/12 08:39:59;;;;;;;;;;;24.60;65.90;;;;;;5101478;28;19920;-63
2023/09/12 08:42:26;;;;;;;;;;;24.60;65.90;;;;;;5089309;27;19924;-62
2023/09/12 08:44:53;;;;;;;;;;;24.60;65.90;;;;;;5080458;28;19928;-62
2023/09/12 08:47:20;;;;;;;;;;;24.50;65.80;;;;;;5104173;27;19933;-63
2023/09/12 08:49:47;;;;;;;;;;;24.60;65.90;;;;;;5084112;28;19957;-63
2023/09/12 08:52:13;;;;;;;;;;;24.60;65.90;;;;;;5088497;28;19977;-66
2023/09/12 08:54:42;;;;;;;;;;;24.60;66.00;;;;;;5112887;27;19924;-63
2023/09/12 08:57:08;;;;;;;;;;;24.60;65.90;;;;;;5095666;28;19935;-62
2023/09/12 08:59:35;;;;;;;;;;;24.50;65.80;;;;;;5089221;28;19935;-63
2023/09/12 09:02:02;;;;;;;;;;;24.60;66.00;;;;;;5098618;28;19928;-63
2023/09/12 09:04:30;;;;;;;;;;;24.60;66.00;;;;;;5088585;28;19923;-66
2023/09/12 09:06:57;;;;;;;;;;;24.60;66.10;;;;;;5109091;27;19959;-63
2023/09/12 09:09:24;;;;;;;;;;;24.60;66.10;;;;;;5089635;28;19997;-65
2023/09/12 09:11:53;;;;;;;;;;;24.60;66.00;;;;;;5088423;28;20356;-63
2023/09/12 09:14:19;;;;;;;;;;;24.60;66.10;;;;;;5086281;28;19978;-65
2023/09/12 09:16:46;;;;;;;;;;;24.60;66.10;;;;;;5086428;28;19936;-63
2023/09/12 09:19:13;;;;;;;;;;;24.60;66.10;;;;;;5121279;27;19924;-63
2023/09/12 09:21:40;;;;;;;;;;;24.60;66.10;;;;;;5086570;28;19920;-64
2023/09/12 09:24:07;;;;;;;;;;;24.60;66.10;;;;;;5119520;27;19963;-63
2023/09/12 09:26:41;;;;;;;;;;;24.60;66.10;;;;;;5077216;28;19996;-63
2023/09/12 09:29:10;;;;;;;;;;;24.60;66.10;;;;;;5093997;27;20006;-63
2023/09/12 09:31:39;;;;;;;;;;;24.60;66.00;;;;;;5100078;28;19928;-63
2023/09/12 09:34:06;;;;;;;;;;;24.60;66.00;;;;;;5086837;28;19920;-63
2023/09/12 09:36:33;;;;;;;;;;;24.60;66.70;;;;;;5079962;28;19973;-64
2023/09/12 09:39:00;;;;;;;;;;;24.60;66.00;;;;;;5081384;28;19928;-62
2023/09/12 09:41:27;;;;;;;;;;;24.60;66.00;;;;;;5090728;28;19924;-63
2023/09/12 09:43:54;;;;;;;;;;;24.60;66.00;;;;;;5097398;28;19946;-62
2023/09/12 09:46:22;;;;;;;;;;;24.60;66.00;;;;;;5087722;28;19928;-63
2023/09/12 09:48:52;;;;;;;;;;;24.60;66.00;;;;;;5086296;28;19928;-62
2023/09/12 09:51:19;;;;;;;;;;;24.60;66.10;;;;;;5085724;28;19925;-65
2023/09/12 09:53:47;;;;;;;;;;;24.60;66.10;;;;;;5084097;28;19932;-63
2023/09/12 09:56:14;;;;;;;;;;;24.60;66.20;;;;;;5086281;28;20001;-62
2023/09/12 09:58:47;;;;;;;;;;;24.60;66.30;;;;;;5078838;28;19924;-63
2023/09/12 10:01:13;;;;;;;;;;;24.60;66.30;;;;;;5079271;28;19924;-63
2023/09/12 10:03:41;;;;;;;;;;;24.60;66.30;;;;;;5090127;28;19920;-62
2023/09/12 10:06:08;;;;;;;;;;;24.60;66.30;;;;;;5077917;28;19924;-62
2023/09/12 10:08:35;;;;;;;;;;;24.60;66.40;;;;;;5076708;28;19928;-63
2023/09/12 10:11:02;;;;;;;;;;;24.60;66.40;;;;;;5087950;28;19925;-63
2023/09/12 10:13:32;;;;;;;;;;;24.60;66.40;;;;;;5088795;28;19958;-65
2023/09/12 10:15:59;;;;;;;;;;;24.60;66.40;;;;;;5080560;28;19925;-62
2023/09/12 10:18:26;;;;;;;;;;;24.60;66.40;;;;;;5091843;28;19928;-62
2023/09/12 10:20:56;;;;;;;;;;;24.60;66.40;;;;;;5096921;28;20203;-63
2023/09/12 10:23:24;;;;;;;;;;;24.60;66.40;;;;;;5085169;28;19927;-62
2023/09/12 10:25:51;;;;;;;;;;;24.60;66.40;;;;;;5089386;28;19924;-62
2023/09/12 10:28:17;;;;;;;;;;;24.60;66.40;;;;;;5072526;28;20014;-64
2023/09/12 10:30:44;;;;;;;;;;;24.60;66.40;;;;;;5087895;28;19925;-62
2023/09/12 10:33:11;;;;;;;;;;;24.60;66.40;;;;;;5086137;28;19924;-62
2023/09/12 10:35:38;;;;;;;;;;;24.60;66.40;;;;;;5087568;28;19920;-62
2023/09/12 10:38:06;;;;;;;;;;;24.60;66.40;;;;;;5091175;28;19936;-62
2023/09/12 10:40:33;;;;;;;;;;;24.60;66.40;;;;;;5081363;28;19928;-63
2023/09/12 10:43:03;;;;;;;;;;;24.60;66.40;;;;;;5086121;28;19924;-64
2023/09/12 10:45:30;;;;;;;;;;;24.60;66.40;;;;;;5114514;27;19928;-65
2023/09/12 10:47:57;;;;;;;;;;;24.60;66.40;;;;;;5092973;28;19924;-63
2023/09/12 10:50:24;;;;;;;;;;;24.60;66.40;;;;;;5087815;28;19932;-62
2023/09/12 10:52:50;;;;;;;;;;;24.60;66.40;;;;;;5101412;27;19924;-62
2023/09/12 10:55:19;;;;;;;;;;;24.60;66.40;;;;;;5099768;28;19936;-62
2023/09/12 10:58:01;;;;;;;;;;;24.60;66.30;;;;;;5087285;28;19972;-65
2023/09/12 11:00:29;;;;;;;;;;;24.60;66.40;;;;;;5083648;28;19989;-62
2023/09/12 11:02:55;;;;;;;;;;;24.60;66.40;;;;;;5105071;27;20005;-62
2023/09/12 11:05:38;;;;;;;;;;;24.60;66.30;;;;;;5084802;28;19924;-62
2023/09/12 11:08:05;;;;;;;;;;;24.60;66.30;;;;;;5098140;28;19939;-63
2023/09/12 11:10:33;;;;;;;;;;;24.60;66.40;;;;;;5098270;28;19928;-65
2023/09/12 11:13:00;;;;;;;;;;;24.60;66.40;;;;;;5086738;28;19928;-63
2023/09/12 11:15:27;;;;;;;;;;;24.60;66.40;;;;;;5102413;27;19955;-62
2023/09/12 11:18:00;;;;;;;;;;;24.60;66.40;;;;;;5087622;28;19970;-62
2023/09/12 11:20:47;;;;;;;;;;;24.60;67.20;;;;;;5097766;28;19932;-63
2023/09/12 11:23:14;;;;;;;;;;;24.60;66.40;;;;;;5086577;28;19928;-65
2023/09/12 11:25:42;;;;;;;;;;;24.60;66.40;;;;;;5090960;28;19924;-63
2023/09/12 11:28:09;;;;;;;;;;;24.60;66.40;;;;;;5112438;27;19968;-63
2023/09/12 11:30:36;;;;;;;;;;;24.60;66.40;;;;;;5096898;27;19954;-65
2023/09/12 11:33:04;;;;;;;;;;;24.60;66.50;;;;;;5084411;28;19924;-62
2023/09/12 11:35:31;;;;;;;;;;;24.60;66.50;;;;;;5088395;28;19924;-63
2023/09/12 11:37:59;;;;;;;;;;;24.60;66.50;;;;;;5111322;27;19978;-62
2023/09/12 11:40:41;;;;;;;;;;;24.60;66.50;;;;;;5088547;28;19928;-64
2023/09/12 11:43:10;;;;;;;;;;;24.60;66.40;;;;;;5105245;28;19924;-64
2023/09/12 11:45:36;;;;;;;;;;;24.60;66.40;;;;;;5084765;28;19928;-62
2023/09/12 11:48:03;;;;;;;;;;;24.60;66.50;;;;;;5083373;28;19954;-63
2023/09/12 11:50:30;;;;;;;;;;;24.60;66.60;;;;;;5088559;28;19923;-65
2023/09/12 11:53:01;;;;;;;;;;;24.60;66.70;;;;;;5090081;28;19939;-61
2023/09/12 11:55:30;;;;;;;;;;;24.60;66.70;;;;;;5083131;28;19935;-62
2023/09/12 11:57:57;;;;;;;;;;;24.60;66.70;;;;;;5082124;28;19935;-62
2023/09/12 12:00:26;;;;;;;;;;;24.60;66.70;;;;;;5082177;28;19928;-63
2023/09/12 12:02:52;;;;;;;;;;;24.60;66.70;;;;;;5088835;28;19932;-63
2023/09/12 12:05:19;;;;;;;;;;;24.60;66.70;;;;;;5086599;28;19924;-62
2023/09/12 12:07:47;;;;;;;;;;;24.60;66.70;;;;;;5095181;28;19928;-64
2023/09/12 12:10:14;;;;;;;;;;;24.60;66.60;;;;;;5114662;27;19924;-62
2023/09/12 12:12:41;;;;;;;;;;;24.60;66.60;;;;;;5083759;28;19931;-64
2023/09/12 12:15:10;;;;;;;;;;;24.60;66.60;;;;;;5077897;28;19950;-64
2023/09/12 12:17:40;;;;;;;;;;;24.60;66.60;;;;;;5087825;28;19932;-66
2023/09/12 12:20:10;;;;;;;;;;;24.60;66.50;;;;;;5082639;28;19975;-62
2023/09/12 12:22:36;;;;;;;;;;;24.60;66.40;;;;;;5078494;28;19928;-62
2023/09/12 12:25:06;;;;;;;;;;;24.60;66.40;;;;;;5094792;28;19968;-62
2023/09/12 12:27:33;;;;;;;;;;;24.60;66.40;;;;;;5085560;28;19925;-65
2023/09/12 12:30:00;;;;;;;;;;;24.60;66.40;;;;;;5085989;28;19924;-63
2023/09/12 12:32:26;;;;;;;;;;;24.60;66.40;;;;;;5082507;28;20019;-65
2023/09/12 12:34:55;;;;;;;;;;;24.60;66.40;;;;;;5080414;28;19932;-61
2023/09/12 12:37:21;;;;;;;;;;;24.60;66.30;;;;;;5097619;28;19931;-62
2023/09/12 12:39:48;;;;;;;;;;;24.60;66.30;;;;;;5086866;28;19932;-62
2023/09/12 12:42:15;;;;;;;;;;;24.60;66.30;;;;;;5090991;28;19925;-64
2023/09/12 12:44:41;;;;;;;;;;;24.60;66.30;;;;;;5079724;28;19932;-63
2023/09/12 12:47:09;;;;;;;;;;;24.60;66.30;;;;;;5084843;28;20001;-62
2023/09/12 12:49:39;;;;;;;;;;;24.60;66.30;;;;;;5101947;28;20268;-63
2023/09/12 12:52:07;;;;;;;;;;;24.60;66.30;;;;;;5093723;28;19936;-62
2023/09/12 12:54:34;;;;;;;;;;;24.60;66.40;;;;;;5082058;28;19924;-63
2023/09/12 12:57:01;;;;;;;;;;;24.60;66.40;;;;;;5099595;27;19980;-64
2023/09/12 12:59:29;;;;;;;;;;;24.60;66.50;;;;;;5078524;28;19932;-63
2023/09/12 13:01:56;;;;;;;;;;;24.60;66.60;;;;;;5091906;28;19954;-62
2023/09/12 13:04:24;;;;;;;;;;;24.70;66.70;;;;;;5078775;28;19936;-63
2023/09/12 13:06:51;;;;;;;;;;;24.60;66.60;;;;;;5090485;28;19924;-62
2023/09/12 13:09:19;;;;;;;;;;;24.70;66.80;;;;;;5101708;28;20002;-65
2023/09/12 13:11:46;;;;;;;;;;;24.70;66.80;;;;;;5099526;28;19924;-63
2023/09/12 13:14:13;;;;;;;;;;;24.70;66.80;;;;;;5078858;28;19924;-64
2023/09/12 13:16:40;;;;;;;;;;;24.70;66.90;;;;;;5083650;28;19925;-62
2023/09/12 13:19:07;;;;;;;;;;;24.60;66.80;;;;;;5086705;28;19931;-63
2023/09/12 13:21:34;;;;;;;;;;;24.70;66.90;;;;;;5091359;28;19923;-64
2023/09/12 13:24:01;;;;;;;;;;;24.70;66.90;;;;;;5083431;28;19925;-65
2023/09/12 13:26:30;;;;;;;;;;;24.70;66.90;;;;;;5084442;28;19936;-62
2023/09/12 13:28:57;;;;;;;;;;;24.70;67.10;;;;;;5101152;28;19928;-62
2023/09/12 13:31:24;;;;;;;;;;;24.70;67.30;;;;;;5082364;28;19928;-62
2023/09/12 13:33:51;;;;;;;;;;;24.70;67.50;;;;;;5085526;28;19928;-62
2023/09/12 13:36:17;;;;;;;;;;;24.70;67.60;;;;;;5097781;27;19989;-65
2023/09/12 13:38:47;;;;;;;;;;;24.70;67.80;;;;;;5088057;28;19932;-62
2023/09/12 13:41:14;;;;;;;;;;;24.70;67.90;;;;;;5098328;28;19974;-63
2023/09/12 13:43:45;;;;;;;;;;;24.70;68.00;;;;;;5081337;28;19973;-62
2023/09/12 13:46:11;;;;;;;;;;;24.70;68.20;;;;;;5095074;28;19936;-65
2023/09/12 13:48:38;;;;;;;;;;;24.70;68.30;;;;;;5079007;28;19928;-63
2023/09/12 13:51:05;;;;;;;;;;;24.70;68.20;;;;;;5079981;28;19928;-61
2023/09/12 13:53:32;;;;;;;;;;;24.60;68.00;;;;;;5090288;28;19981;-62
2023/09/12 13:56:01;;;;;;;;;;;24.60;68.10;;;;;;5084624;28;19972;-62
2023/09/12 13:58:27;;;;;;;;;;;24.70;68.10;;;;;;5085917;28;19924;-62
2023/09/12 14:00:55;;;;;;;;;;;24.60;68.00;;;;;;5085245;28;19920;-62
2023/09/12 14:03:22;;;;;;;;;;;24.60;67.90;;;;;;5088717;28;19927;-62
2023/09/12 14:05:49;;;;;;;;;;;24.60;68.60;;;;;;5096177;28;19924;-62
2023/09/12 14:08:16;;;;;;;;;;;24.60;67.80;;;;;;5083264;28;19989;-62
2023/09/12 14:10:43;;;;;;;;;;;24.60;67.80;;;;;;5098107;27;19924;-62
2023/09/12 14:13:10;;;;;;;;;;;24.60;67.70;;;;;;5093021;28;19927;-61
2023/09/12 14:15:36;;;;;;;;;;;24.60;67.70;;;;;;5085291;28;19924;-61
2023/09/12 14:18:05;;;;;;;;;;;24.60;67.80;;;;;;5092686;28;19925;-62